sensor_id;sensor_type;location;lat;lon;timestamp;P1;durP1;ratioP1;P2;durP2;ratioP2
49764;SDS011;35657;51.204;-4.130;2023-07-30T00:01:44;5.40;;;1.35;;
49764;SDS011;35657;51.204;-4.130;2023-07-30T00:04:09;12.95;;;3.15;;
49764;SDS011;35657;51.204;-4.130;2023-07-30T00:06:35;5.03;;;1.23;;
49764;SDS011;35657;51.204;-4.130;2023-07-30T00:09:01;7.60;;;1.60;;
49764;SDS011;35657;51.204;-4.130;2023-07-30T00:11:26;20.88;;;1.95;;
49764;SDS011;35657;51.204;-4.130;2023-07-30T00:13:52;8.90;;;1.27;;
49764;SDS011;35657;51.204;-4.130;2023-07-30T00:16:18;6.20;;;1.70;;
49764;SDS011;35657;51.204;-4.130;2023-07-30T00:18:44;6.22;;;1.75;;
49764;SDS011;35657;51.204;-4.130;2023-07-30T00:21:09;6.03;;;1.85;;
49764;SDS011;35657;51.204;-4.130;2023-07-30T00:23:35;3.13;;;1.35;;
49764;SDS011;35657;51.204;-4.130;2023-07-30T00:26:01;10.23;;;1.90;;
49764;SDS011;35657;51.204;-4.130;2023-07-30T00:28:26;6.43;;;1.48;;
49764;SDS011;35657;51.204;-4.130;2023-07-30T00:30:52;4.18;;;1.35;;
49764;SDS011;35657;51.204;-4.130;2023-07-30T00:33:18;11.27;;;1.65;;
49764;SDS011;35657;51.204;-4.130;2023-07-30T00:35:43;7.70;;;1.75;;
49764;SDS011;35657;51.204;-4.130;2023-07-30T00:38:09;6.47;;;1.80;;
49764;SDS011;35657;51.204;-4.130;2023-07-30T00:40:41;6.80;;;1.65;;
49764;SDS011;35657;51.204;-4.130;2023-07-30T00:43:07;5.50;;;1.33;;
49764;SDS011;35657;51.204;-4.130;2023-07-30T00:45:33;6.78;;;2.58;;
49764;SDS011;35657;51.204;-4.130;2023-07-30T00:48:00;5.43;;;1.38;;
49764;SDS011;35657;51.204;-4.130;2023-07-30T00:50:26;9.27;;;1.33;;
49764;SDS011;35657;51.204;-4.130;2023-07-30T00:52:52;9.00;;;1.90;;
49764;SDS011;35657;51.204;-4.130;2023-07-30T00:55:18;7.63;;;1.33;;
49764;SDS011;35657;51.204;-4.130;2023-07-30T00:57:45;5.70;;;1.95;;
49764;SDS011;35657;51.204;-4.130;2023-07-30T01:00:11;3.55;;;1.00;;
49764;SDS011;35657;51.204;-4.130;2023-07-30T01:02:37;11.27;;;2.25;;
49764;SDS011;35657;51.204;-4.130;2023-07-30T01:05:03;5.22;;;1.60;;
49764;SDS011;35657;51.204;-4.130;2023-07-30T01:07:30;2.55;;;0.88;;
49764;SDS011;35657;51.204;-4.130;2023-07-30T01:09:56;4.93;;;1.40;;
49764;SDS011;35657;51.204;-4.130;2023-07-30T01:12:22;5.13;;;1.13;;
49764;SDS011;35657;51.204;-4.130;2023-07-30T01:14:49;18.77;;;1.80;;
49764;SDS011;35657;51.204;-4.130;2023-07-30T01:17:15;6.97;;;1.55;;
49764;SDS011;35657;51.204;-4.130;2023-07-30T01:22:10;7.38;;;1.50;;
49764;SDS011;35657;51.204;-4.130;2023-07-30T01:24:35;10.30;;;2.00;;
49764;SDS011;35657;51.204;-4.130;2023-07-30T01:27:02;8.25;;;1.75;;
49764;SDS011;35657;51.204;-4.130;2023-07-30T01:29:45;10.50;;;2.05;;
49764;SDS011;35657;51.204;-4.130;2023-07-30T01:32:27;10.25;;;1.58;;
49764;SDS011;35657;51.204;-4.130;2023-07-30T01:34:55;7.25;;;1.83;;
49764;SDS011;35657;51.204;-4.130;2023-07-30T01:37:23;3.88;;;1.33;;
49764;SDS011;35657;51.204;-4.130;2023-07-30T01:39:49;3.00;;;1.25;;
49764;SDS011;35657;51.204;-4.130;2023-07-30T01:42:16;11.35;;;1.90;;
49764;SDS011;35657;51.204;-4.130;2023-07-30T01:44:42;5.97;;;1.48;;
49764;SDS011;35657;51.204;-4.130;2023-07-30T01:47:08;6.57;;;1.85;;
49764;SDS011;35657;51.204;-4.130;2023-07-30T01:49:34;4.75;;;1.17;;
49764;SDS011;35657;51.204;-4.130;2023-07-30T01:52:00;6.82;;;1.15;;
49764;SDS011;35657;51.204;-4.130;2023-07-30T01:54:26;3.17;;;1.35;;
49764;SDS011;35657;51.204;-4.130;2023-07-30T01:56:52;6.43;;;1.63;;
49764;SDS011;35657;51.204;-4.130;2023-07-30T01:59:18;11.38;;;1.75;;
49764;SDS011;35657;51.204;-4.130;2023-07-30T02:01:44;3.45;;;1.55;;
49764;SDS011;35657;51.204;-4.130;2023-07-30T02:04:09;7.40;;;1.60;;
49764;SDS011;35657;51.204;-4.130;2023-07-30T02:06:35;11.52;;;1.60;;
49764;SDS011;35657;51.204;-4.130;2023-07-30T02:09:01;6.40;;;1.70;;
49764;SDS011;35657;51.204;-4.130;2023-07-30T02:11:27;5.28;;;1.52;;
49764;SDS011;35657;51.204;-4.130;2023-07-30T02:13:53;7.78;;;2.80;;
49764;SDS011;35657;51.204;-4.130;2023-07-30T02:16:19;11.25;;;2.85;;
49764;SDS011;35657;51.204;-4.130;2023-07-30T02:18:45;7.50;;;1.63;;
49764;SDS011;35657;51.204;-4.130;2023-07-30T02:21:12;10.25;;;1.88;;
49764;SDS011;35657;51.204;-4.130;2023-07-30T02:23:38;16.45;;;2.53;;
49764;SDS011;35657;51.204;-4.130;2023-07-30T02:26:03;10.90;;;2.05;;
49764;SDS011;35657;51.204;-4.130;2023-07-30T02:28:29;17.40;;;2.70;;
49764;SDS011;35657;51.204;-4.130;2023-07-30T02:30:55;11.95;;;3.35;;
49764;SDS011;35657;51.204;-4.130;2023-07-30T02:33:20;15.65;;;2.15;;
49764;SDS011;35657;51.204;-4.130;2023-07-30T02:35:46;15.95;;;4.20;;
49764;SDS011;35657;51.204;-4.130;2023-07-30T02:38:12;10.63;;;4.43;;
49764;SDS011;35657;51.204;-4.130;2023-07-30T02:40:38;10.20;;;5.10;;
49764;SDS011;35657;51.204;-4.130;2023-07-30T02:43:03;12.68;;;4.88;;
49764;SDS011;35657;51.204;-4.130;2023-07-30T02:45:29;12.23;;;3.95;;
49764;SDS011;35657;51.204;-4.130;2023-07-30T02:47:55;17.63;;;3.70;;
49764;SDS011;35657;51.204;-4.130;2023-07-30T02:50:21;10.15;;;2.70;;
49764;SDS011;35657;51.204;-4.130;2023-07-30T02:52:46;11.93;;;2.67;;
49764;SDS011;35657;51.204;-4.130;2023-07-30T02:55:12;11.85;;;2.38;;
49764;SDS011;35657;51.204;-4.130;2023-07-30T02:57:38;10.38;;;2.95;;
49764;SDS011;35657;51.204;-4.130;2023-07-30T03:00:04;9.68;;;2.22;;
49764;SDS011;35657;51.204;-4.130;2023-07-30T03:02:30;11.98;;;3.17;;
49764;SDS011;35657;51.204;-4.130;2023-07-30T03:04:56;7.05;;;1.73;;
49764;SDS011;35657;51.204;-4.130;2023-07-30T03:07:21;7.60;;;2.70;;
49764;SDS011;35657;51.204;-4.130;2023-07-30T03:09:47;4.70;;;2.15;;
49764;SDS011;35657;51.204;-4.130;2023-07-30T03:12:13;9.57;;;2.45;;
49764;SDS011;35657;51.204;-4.130;2023-07-30T03:14:39;3.70;;;1.42;;
49764;SDS011;35657;51.204;-4.130;2023-07-30T03:17:05;6.15;;;1.55;;
49764;SDS011;35657;51.204;-4.130;2023-07-30T03:19:31;6.68;;;2.05;;
49764;SDS011;35657;51.204;-4.130;2023-07-30T03:21:57;8.30;;;2.30;;
49764;SDS011;35657;51.204;-4.130;2023-07-30T03:24:23;6.72;;;1.45;;
49764;SDS011;35657;51.204;-4.130;2023-07-30T03:26:48;5.97;;;1.65;;
49764;SDS011;35657;51.204;-4.130;2023-07-30T03:29:14;16.45;;;2.70;;
49764;SDS011;35657;51.204;-4.130;2023-07-30T03:31:41;8.52;;;2.40;;
49764;SDS011;35657;51.204;-4.130;2023-07-30T03:34:06;8.02;;;2.20;;
49764;SDS011;35657;51.204;-4.130;2023-07-30T03:36:32;7.97;;;1.80;;
49764;SDS011;35657;51.204;-4.130;2023-07-30T03:38:58;17.35;;;1.63;;
49764;SDS011;35657;51.204;-4.130;2023-07-30T03:41:24;10.02;;;2.08;;
49764;SDS011;35657;51.204;-4.130;2023-07-30T03:43:50;8.30;;;2.30;;
49764;SDS011;35657;51.204;-4.130;2023-07-30T03:46:16;6.95;;;2.03;;
49764;SDS011;35657;51.204;-4.130;2023-07-30T03:48:44;11.68;;;2.95;;
49764;SDS011;35657;51.204;-4.130;2023-07-30T03:51:10;12.27;;;1.92;;
49764;SDS011;35657;51.204;-4.130;2023-07-30T03:53:36;10.82;;;2.70;;
49764;SDS011;35657;51.204;-4.130;2023-07-30T03:56:02;4.45;;;1.75;;
49764;SDS011;35657;51.204;-4.130;2023-07-30T03:58:27;8.07;;;1.88;;
49764;SDS011;35657;51.204;-4.130;2023-07-30T04:00:55;11.10;;;3.47;;
49764;SDS011;35657;51.204;-4.130;2023-07-30T04:03:21;6.45;;;2.03;;
49764;SDS011;35657;51.204;-4.130;2023-07-30T04:05:47;8.95;;;1.73;;
49764;SDS011;35657;51.204;-4.130;2023-07-30T04:08:12;9.82;;;1.92;;
49764;SDS011;35657;51.204;-4.130;2023-07-30T04:10:38;2.80;;;1.17;;
49764;SDS011;35657;51.204;-4.130;2023-07-30T04:13:04;7.80;;;1.60;;
49764;SDS011;35657;51.204;-4.130;2023-07-30T04:15:30;8.05;;;2.38;;
49764;SDS011;35657;51.204;-4.130;2023-07-30T04:17:56;8.82;;;2.03;;
49764;SDS011;35657;51.204;-4.130;2023-07-30T04:20:21;7.15;;;1.50;;
49764;SDS011;35657;51.204;-4.130;2023-07-30T04:22:47;11.98;;;3.55;;
49764;SDS011;35657;51.204;-4.130;2023-07-30T04:25:13;14.05;;;2.20;;
49764;SDS011;35657;51.204;-4.130;2023-07-30T04:27:38;8.38;;;1.83;;
49764;SDS011;35657;51.204;-4.130;2023-07-30T04:30:05;6.07;;;1.40;;
49764;SDS011;35657;51.204;-4.130;2023-07-30T04:32:31;11.80;;;2.00;;
49764;SDS011;35657;51.204;-4.130;2023-07-30T04:34:57;6.60;;;2.17;;
49764;SDS011;35657;51.204;-4.130;2023-07-30T04:37:23;7.55;;;2.22;;
49764;SDS011;35657;51.204;-4.130;2023-07-30T04:39:48;9.50;;;2.25;;
49764;SDS011;35657;51.204;-4.130;2023-07-30T04:42:14;10.63;;;2.20;;
49764;SDS011;35657;51.204;-4.130;2023-07-30T04:44:40;9.75;;;1.98;;
49764;SDS011;35657;51.204;-4.130;2023-07-30T04:47:06;7.72;;;2.40;;
49764;SDS011;35657;51.204;-4.130;2023-07-30T04:49:32;4.40;;;1.73;;
49764;SDS011;35657;51.204;-4.130;2023-07-30T04:51:58;7.93;;;2.00;;
49764;SDS011;35657;51.204;-4.130;2023-07-30T04:54:24;10.07;;;1.70;;
49764;SDS011;35657;51.204;-4.130;2023-07-30T04:56:50;5.65;;;2.08;;
49764;SDS011;35657;51.204;-4.130;2023-07-30T04:59:15;7.03;;;1.80;;
49764;SDS011;35657;51.204;-4.130;2023-07-30T05:01:41;11.30;;;2.75;;
49764;SDS011;35657;51.204;-4.130;2023-07-30T05:04:07;14.05;;;2.60;;
49764;SDS011;35657;51.204;-4.130;2023-07-30T05:06:33;10.48;;;2.17;;
49764;SDS011;35657;51.204;-4.130;2023-07-30T05:08:58;12.93;;;3.15;;
49764;SDS011;35657;51.204;-4.130;2023-07-30T05:11:24;5.50;;;1.73;;
49764;SDS011;35657;51.204;-4.130;2023-07-30T05:13:50;7.43;;;2.08;;
49764;SDS011;35657;51.204;-4.130;2023-07-30T05:16:15;11.02;;;2.58;;
49764;SDS011;35657;51.204;-4.130;2023-07-30T05:18:41;10.65;;;2.50;;
49764;SDS011;35657;51.204;-4.130;2023-07-30T05:21:07;9.85;;;2.30;;
49764;SDS011;35657;51.204;-4.130;2023-07-30T05:23:33;13.70;;;3.22;;
49764;SDS011;35657;51.204;-4.130;2023-07-30T05:25:58;12.27;;;3.13;;
49764;SDS011;35657;51.204;-4.130;2023-07-30T05:28:25;9.35;;;3.03;;
49764;SDS011;35657;51.204;-4.130;2023-07-30T05:30:51;14.63;;;2.28;;
49764;SDS011;35657;51.204;-4.130;2023-07-30T05:33:17;9.27;;;2.45;;
49764;SDS011;35657;51.204;-4.130;2023-07-30T05:35:43;9.48;;;2.42;;
49764;SDS011;35657;51.204;-4.130;2023-07-30T05:38:09;9.43;;;2.40;;
49764;SDS011;35657;51.204;-4.130;2023-07-30T05:40:35;9.32;;;2.47;;
49764;SDS011;35657;51.204;-4.130;2023-07-30T05:43:01;14.57;;;2.65;;
49764;SDS011;35657;51.204;-4.130;2023-07-30T05:45:27;13.07;;;2.58;;
49764;SDS011;35657;51.204;-4.130;2023-07-30T05:47:53;9.77;;;2.75;;
49764;SDS011;35657;51.204;-4.130;2023-07-30T05:50:19;9.93;;;2.80;;
49764;SDS011;35657;51.204;-4.130;2023-07-30T05:52:45;2.72;;;1.55;;
49764;SDS011;35657;51.204;-4.130;2023-07-30T05:55:11;9.85;;;1.90;;
49764;SDS011;35657;51.204;-4.130;2023-07-30T05:57:37;7.15;;;2.03;;
49764;SDS011;35657;51.204;-4.130;2023-07-30T06:00:03;6.88;;;2.28;;
49764;SDS011;35657;51.204;-4.130;2023-07-30T06:02:29;8.40;;;3.40;;
49764;SDS011;35657;51.204;-4.130;2023-07-30T06:04:55;6.35;;;2.25;;
49764;SDS011;35657;51.204;-4.130;2023-07-30T06:07:20;5.65;;;1.75;;
49764;SDS011;35657;51.204;-4.130;2023-07-30T06:09:46;7.55;;;1.50;;
49764;SDS011;35657;51.204;-4.130;2023-07-30T06:12:12;5.65;;;1.92;;
49764;SDS011;35657;51.204;-4.130;2023-07-30T06:14:37;3.00;;;1.58;;
49764;SDS011;35657;51.204;-4.130;2023-07-30T06:17:03;8.93;;;1.95;;
49764;SDS011;35657;51.204;-4.130;2023-07-30T06:19:29;7.85;;;2.65;;
49764;SDS011;35657;51.204;-4.130;2023-07-30T06:21:55;10.68;;;3.80;;
49764;SDS011;35657;51.204;-4.130;2023-07-30T06:24:20;5.63;;;1.50;;
49764;SDS011;35657;51.204;-4.130;2023-07-30T06:26:46;4.95;;;1.20;;
49764;SDS011;35657;51.204;-4.130;2023-07-30T06:29:12;2.15;;;1.08;;
49764;SDS011;35657;51.204;-4.130;2023-07-30T06:31:38;6.53;;;1.10;;
49764;SDS011;35657;51.204;-4.130;2023-07-30T06:34:03;6.28;;;1.33;;
49764;SDS011;35657;51.204;-4.130;2023-07-30T06:36:29;2.30;;;1.00;;
49764;SDS011;35657;51.204;-4.130;2023-07-30T06:38:55;6.55;;;0.90;;
49764;SDS011;35657;51.204;-4.130;2023-07-30T06:41:21;5.55;;;1.20;;
49764;SDS011;35657;51.204;-4.130;2023-07-30T06:43:47;2.58;;;1.05;;
49764;SDS011;35657;51.204;-4.130;2023-07-30T06:46:12;3.30;;;1.05;;
49764;SDS011;35657;51.204;-4.130;2023-07-30T06:48:38;4.97;;;1.23;;
49764;SDS011;35657;51.204;-4.130;2023-07-30T06:51:05;6.55;;;1.23;;
49764;SDS011;35657;51.204;-4.130;2023-07-30T06:53:31;2.75;;;1.20;;
49764;SDS011;35657;51.204;-4.130;2023-07-30T06:55:57;3.30;;;0.80;;
49764;SDS011;35657;51.204;-4.130;2023-07-30T06:58:23;2.17;;;1.00;;
49764;SDS011;35657;51.204;-4.130;2023-07-30T07:00:49;1.45;;;1.02;;
49764;SDS011;35657;51.204;-4.130;2023-07-30T07:03:14;4.63;;;1.00;;
49764;SDS011;35657;51.204;-4.130;2023-07-30T07:05:40;3.97;;;1.00;;
49764;SDS011;35657;51.204;-4.130;2023-07-30T07:08:06;3.65;;;0.60;;
49764;SDS011;35657;51.204;-4.130;2023-07-30T07:10:31;3.35;;;1.00;;
49764;SDS011;35657;51.204;-4.130;2023-07-30T07:12:57;2.35;;;0.90;;
49764;SDS011;35657;51.204;-4.130;2023-07-30T07:15:23;1.67;;;0.80;;
49764;SDS011;35657;51.204;-4.130;2023-07-30T07:17:48;1.98;;;0.68;;
49764;SDS011;35657;51.204;-4.130;2023-07-30T07:20:14;5.93;;;0.70;;
49764;SDS011;35657;51.204;-4.130;2023-07-30T07:22:40;1.20;;;0.57;;
49764;SDS011;35657;51.204;-4.130;2023-07-30T07:25:05;2.67;;;0.70;;
49764;SDS011;35657;51.204;-4.130;2023-07-30T07:27:31;1.77;;;0.68;;
49764;SDS011;35657;51.204;-4.130;2023-07-30T07:29:57;2.90;;;0.70;;
49764;SDS011;35657;51.204;-4.130;2023-07-30T07:32:24;3.70;;;0.90;;
49764;SDS011;35657;51.204;-4.130;2023-07-30T07:34:50;4.35;;;1.10;;
49764;SDS011;35657;51.204;-4.130;2023-07-30T07:37:16;0.95;;;0.70;;
49764;SDS011;35657;51.204;-4.130;2023-07-30T07:39:43;1.52;;;0.80;;
49764;SDS011;35657;51.204;-4.130;2023-07-30T07:42:10;3.55;;;0.60;;
49764;SDS011;35657;51.204;-4.130;2023-07-30T07:44:36;1.33;;;0.75;;
49764;SDS011;35657;51.204;-4.130;2023-07-30T07:47:01;1.75;;;0.75;;
49764;SDS011;35657;51.204;-4.130;2023-07-30T07:49:27;3.17;;;0.70;;
49764;SDS011;35657;51.204;-4.130;2023-07-30T07:51:53;1.90;;;0.80;;
49764;SDS011;35657;51.204;-4.130;2023-07-30T07:54:19;3.35;;;1.10;;
49764;SDS011;35657;51.204;-4.130;2023-07-30T07:56:44;3.25;;;0.80;;
49764;SDS011;35657;51.204;-4.130;2023-07-30T07:59:10;1.20;;;0.70;;
49764;SDS011;35657;51.204;-4.130;2023-07-30T08:01:36;7.72;;;0.82;;
49764;SDS011;35657;51.204;-4.130;2023-07-30T08:04:02;0.90;;;0.90;;
49764;SDS011;35657;51.204;-4.130;2023-07-30T08:06:28;1.85;;;0.60;;
49764;SDS011;35657;51.204;-4.130;2023-07-30T08:08:54;2.78;;;0.80;;
49764;SDS011;35657;51.204;-4.130;2023-07-30T08:11:20;2.03;;;0.50;;
49764;SDS011;35657;51.204;-4.130;2023-07-30T08:13:46;1.65;;;0.85;;
49764;SDS011;35657;51.204;-4.130;2023-07-30T08:16:11;1.98;;;0.68;;
49764;SDS011;35657;51.204;-4.130;2023-07-30T08:18:37;2.40;;;0.80;;
49764;SDS011;35657;51.204;-4.130;2023-07-30T08:21:03;1.17;;;0.70;;
49764;SDS011;35657;51.204;-4.130;2023-07-30T08:23:28;2.47;;;0.70;;
49764;SDS011;35657;51.204;-4.130;2023-07-30T08:25:54;2.35;;;0.60;;
49764;SDS011;35657;51.204;-4.130;2023-07-30T08:28:21;2.40;;;2.05;;
49764;SDS011;35657;51.204;-4.130;2023-07-30T08:30:46;3.10;;;0.55;;
49764;SDS011;35657;51.204;-4.130;2023-07-30T08:33:12;0.55;;;0.40;;
49764;SDS011;35657;51.204;-4.130;2023-07-30T08:35:38;1.58;;;0.80;;
49764;SDS011;35657;51.204;-4.130;2023-07-30T08:38:03;1.55;;;0.55;;
49764;SDS011;35657;51.204;-4.130;2023-07-30T08:40:29;1.88;;;0.80;;
49764;SDS011;35657;51.204;-4.130;2023-07-30T08:42:56;0.88;;;0.40;;
49764;SDS011;35657;51.204;-4.130;2023-07-30T08:45:23;3.53;;;0.65;;
49764;SDS011;35657;51.204;-4.130;2023-07-30T08:47:48;3.35;;;0.60;;
49764;SDS011;35657;51.204;-4.130;2023-07-30T08:50:14;3.53;;;1.08;;
49764;SDS011;35657;51.204;-4.130;2023-07-30T08:52:40;2.97;;;1.67;;
49764;SDS011;35657;51.204;-4.130;2023-07-30T08:55:07;3.60;;;1.05;;
49764;SDS011;35657;51.204;-4.130;2023-07-30T08:57:33;2.72;;;0.88;;
49764;SDS011;35657;51.204;-4.130;2023-07-30T09:00:04;7.78;;;4.60;;
49764;SDS011;35657;51.204;-4.130;2023-07-30T09:02:55;2.70;;;1.90;;
49764;SDS011;35657;51.204;-4.130;2023-07-30T09:05:24;2.95;;;1.10;;
49764;SDS011;35657;51.204;-4.130;2023-07-30T09:07:53;3.97;;;1.73;;
49764;SDS011;35657;51.204;-4.130;2023-07-30T09:10:18;4.28;;;2.92;;
49764;SDS011;35657;51.204;-4.130;2023-07-30T09:12:44;4.30;;;2.88;;
49764;SDS011;35657;51.204;-4.130;2023-07-30T09:15:10;3.40;;;1.55;;
49764;SDS011;35657;51.204;-4.130;2023-07-30T09:17:36;1.85;;;1.48;;
49764;SDS011;35657;51.204;-4.130;2023-07-30T09:20:02;3.78;;;2.20;;
49764;SDS011;35657;51.204;-4.130;2023-07-30T09:22:30;3.53;;;0.73;;
49764;SDS011;35657;51.204;-4.130;2023-07-30T09:25:07;4.70;;;2.25;;
49764;SDS011;35657;51.204;-4.130;2023-07-30T09:27:33;1.40;;;0.90;;
49764;SDS011;35657;51.204;-4.130;2023-07-30T09:30:00;0.90;;;0.55;;
49764;SDS011;35657;51.204;-4.130;2023-07-30T09:32:30;0.52;;;0.50;;
49764;SDS011;35657;51.204;-4.130;2023-07-30T09:35:07;0.20;;;0.20;;
49764;SDS011;35657;51.204;-4.130;2023-07-30T09:37:37;0.22;;;0.20;;
49764;SDS011;35657;51.204;-4.130;2023-07-30T09:40:08;1.88;;;0.30;;
49764;SDS011;35657;51.204;-4.130;2023-07-30T09:42:37;2.28;;;0.57;;
49764;SDS011;35657;51.204;-4.130;2023-07-30T09:45:06;0.30;;;0.17;;
49764;SDS011;35657;51.204;-4.130;2023-07-30T09:47:33;0.28;;;0.28;;
49764;SDS011;35657;51.204;-4.130;2023-07-30T09:50:02;1.63;;;0.55;;
49764;SDS011;35657;51.204;-4.130;2023-07-30T09:52:29;3.63;;;1.48;;
49764;SDS011;35657;51.204;-4.130;2023-07-30T09:54:55;5.00;;;3.08;;
49764;SDS011;35657;51.204;-4.130;2023-07-30T09:57:22;6.93;;;2.95;;
49764;SDS011;35657;51.204;-4.130;2023-07-30T09:59:48;12.15;;;7.15;;
49764;SDS011;35657;51.204;-4.130;2023-07-30T10:02:14;9.80;;;6.60;;
49764;SDS011;35657;51.204;-4.130;2023-07-30T10:04:42;9.85;;;5.88;;
49764;SDS011;35657;51.204;-4.130;2023-07-30T10:07:10;9.52;;;3.90;;
49764;SDS011;35657;51.204;-4.130;2023-07-30T10:09:42;8.55;;;3.45;;
49764;SDS011;35657;51.204;-4.130;2023-07-30T10:12:15;5.18;;;2.50;;
49764;SDS011;35657;51.204;-4.130;2023-07-30T10:14:42;5.45;;;2.08;;
49764;SDS011;35657;51.204;-4.130;2023-07-30T10:17:09;6.35;;;3.38;;
49764;SDS011;35657;51.204;-4.130;2023-07-30T10:19:36;8.52;;;3.50;;
49764;SDS011;35657;51.204;-4.130;2023-07-30T10:22:35;8.35;;;3.50;;
49764;SDS011;35657;51.204;-4.130;2023-07-30T10:27:24;7.38;;;2.20;;
49764;SDS011;35657;51.204;-4.130;2023-07-30T10:30:08;5.75;;;3.13;;
49764;SDS011;35657;51.204;-4.130;2023-07-30T10:32:39;7.25;;;3.72;;
49764;SDS011;35657;51.204;-4.130;2023-07-30T10:35:05;7.07;;;3.80;;
49764;SDS011;35657;51.204;-4.130;2023-07-30T10:37:31;3.88;;;2.42;;
49764;SDS011;35657;51.204;-4.130;2023-07-30T10:39:57;6.40;;;2.03;;
49764;SDS011;35657;51.204;-4.130;2023-07-30T10:42:22;3.78;;;1.80;;
49764;SDS011;35657;51.204;-4.130;2023-07-30T10:44:48;5.18;;;1.70;;
49764;SDS011;35657;51.204;-4.130;2023-07-30T10:47:14;3.38;;;1.80;;
49764;SDS011;35657;51.204;-4.130;2023-07-30T10:49:40;3.15;;;1.45;;
49764;SDS011;35657;51.204;-4.130;2023-07-30T10:52:09;3.70;;;1.58;;
49764;SDS011;35657;51.204;-4.130;2023-07-30T10:54:35;2.78;;;2.13;;
49764;SDS011;35657;51.204;-4.130;2023-07-30T10:57:04;3.50;;;1.27;;
49764;SDS011;35657;51.204;-4.130;2023-07-30T10:59:34;2.85;;;1.13;;
49764;SDS011;35657;51.204;-4.130;2023-07-30T11:02:01;4.30;;;1.88;;
49764;SDS011;35657;51.204;-4.130;2023-07-30T11:04:27;4.18;;;1.80;;
49764;SDS011;35657;51.204;-4.130;2023-07-30T11:06:53;6.47;;;1.95;;
49764;SDS011;35657;51.204;-4.130;2023-07-30T11:09:25;7.55;;;3.33;;
49764;SDS011;35657;51.204;-4.130;2023-07-30T11:11:53;10.10;;;5.20;;
49764;SDS011;35657;51.204;-4.130;2023-07-30T11:14:20;12.60;;;4.57;;
49764;SDS011;35657;51.204;-4.130;2023-07-30T11:16:55;9.60;;;4.03;;
49764;SDS011;35657;51.204;-4.130;2023-07-30T11:19:25;17.52;;;5.93;;
49764;SDS011;35657;51.204;-4.130;2023-07-30T11:21:52;8.43;;;3.35;;
49764;SDS011;35657;51.204;-4.130;2023-07-30T11:24:19;15.05;;;3.25;;
49764;SDS011;35657;51.204;-4.130;2023-07-30T11:26:46;4.90;;;3.10;;
49764;SDS011;35657;51.204;-4.130;2023-07-30T11:29:25;15.07;;;3.70;;
49764;SDS011;35657;51.204;-4.130;2023-07-30T11:31:51;7.22;;;2.42;;
49764;SDS011;35657;51.204;-4.130;2023-07-30T11:34:20;8.18;;;1.88;;
49764;SDS011;35657;51.204;-4.130;2023-07-30T11:36:46;5.15;;;2.25;;
49764;SDS011;35657;51.204;-4.130;2023-07-30T11:39:12;5.90;;;1.35;;
49764;SDS011;35657;51.204;-4.130;2023-07-30T11:41:38;9.30;;;2.33;;
49764;SDS011;35657;51.204;-4.130;2023-07-30T11:44:04;7.53;;;2.00;;
49764;SDS011;35657;51.204;-4.130;2023-07-30T11:46:30;9.43;;;2.67;;
49764;SDS011;35657;51.204;-4.130;2023-07-30T11:49:14;4.60;;;2.25;;
49764;SDS011;35657;51.204;-4.130;2023-07-30T11:51:46;4.07;;;1.63;;
49764;SDS011;35657;51.204;-4.130;2023-07-30T11:54:19;7.82;;;2.55;;
49764;SDS011;35657;51.204;-4.130;2023-07-30T11:56:47;8.35;;;3.30;;
49764;SDS011;35657;51.204;-4.130;2023-07-30T11:59:22;6.30;;;2.85;;
49764;SDS011;35657;51.204;-4.130;2023-07-30T12:01:48;10.32;;;3.35;;
49764;SDS011;35657;51.204;-4.130;2023-07-30T12:04:14;6.07;;;2.53;;
49764;SDS011;35657;51.204;-4.130;2023-07-30T12:06:41;7.53;;;2.80;;
49764;SDS011;35657;51.204;-4.130;2023-07-30T12:09:23;4.57;;;2.30;;
49764;SDS011;35657;51.204;-4.130;2023-07-30T12:11:56;5.60;;;2.70;;
49764;SDS011;35657;51.204;-4.130;2023-07-30T12:14:26;9.43;;;2.33;;
49764;SDS011;35657;51.204;-4.130;2023-07-30T12:16:58;8.00;;;3.03;;
49764;SDS011;35657;51.204;-4.130;2023-07-30T12:19:26;8.18;;;2.75;;
49764;SDS011;35657;51.204;-4.130;2023-07-30T12:21:52;15.32;;;3.30;;
49764;SDS011;35657;51.204;-4.130;2023-07-30T12:24:18;9.27;;;4.57;;
49764;SDS011;35657;51.204;-4.130;2023-07-30T12:26:44;9.88;;;3.97;;
49764;SDS011;35657;51.204;-4.130;2023-07-30T12:29:10;9.70;;;3.00;;
49764;SDS011;35657;51.204;-4.130;2023-07-30T12:31:36;10.15;;;3.17;;
49764;SDS011;35657;51.204;-4.130;2023-07-30T12:34:02;4.50;;;1.73;;
49764;SDS011;35657;51.204;-4.130;2023-07-30T12:36:28;5.45;;;2.30;;
49764;SDS011;35657;51.204;-4.130;2023-07-30T12:38:53;6.88;;;2.45;;
49764;SDS011;35657;51.204;-4.130;2023-07-30T12:41:22;8.43;;;2.53;;
49764;SDS011;35657;51.204;-4.130;2023-07-30T12:43:51;7.63;;;2.78;;
49764;SDS011;35657;51.204;-4.130;2023-07-30T12:46:18;4.63;;;1.88;;
49764;SDS011;35657;51.204;-4.130;2023-07-30T12:48:44;12.10;;;2.85;;
49764;SDS011;35657;51.204;-4.130;2023-07-30T12:51:09;10.38;;;2.60;;
49764;SDS011;35657;51.204;-4.130;2023-07-30T12:53:35;12.63;;;4.13;;
49764;SDS011;35657;51.204;-4.130;2023-07-30T12:56:01;11.15;;;3.03;;
49764;SDS011;35657;51.204;-4.130;2023-07-30T12:58:27;9.73;;;3.50;;
49764;SDS011;35657;51.204;-4.130;2023-07-30T13:00:52;9.00;;;3.70;;
49764;SDS011;35657;51.204;-4.130;2023-07-30T13:03:18;7.20;;;2.25;;
49764;SDS011;35657;51.204;-4.130;2023-07-30T13:05:44;10.50;;;4.30;;
49764;SDS011;35657;51.204;-4.130;2023-07-30T13:08:10;11.18;;;2.83;;
49764;SDS011;35657;51.204;-4.130;2023-07-30T13:10:35;16.08;;;2.53;;
49764;SDS011;35657;51.204;-4.130;2023-07-30T13:13:01;6.93;;;2.47;;
49764;SDS011;35657;51.204;-4.130;2023-07-30T13:15:27;13.40;;;3.28;;
49764;SDS011;35657;51.204;-4.130;2023-07-30T13:17:53;7.63;;;3.17;;
49764;SDS011;35657;51.204;-4.130;2023-07-30T13:20:19;10.13;;;3.33;;
49764;SDS011;35657;51.204;-4.130;2023-07-30T13:22:44;13.18;;;3.13;;
49764;SDS011;35657;51.204;-4.130;2023-07-30T13:25:10;6.43;;;3.00;;
49764;SDS011;35657;51.204;-4.130;2023-07-30T13:27:36;6.28;;;2.83;;
49764;SDS011;35657;51.204;-4.130;2023-07-30T13:30:02;8.02;;;3.15;;
49764;SDS011;35657;51.204;-4.130;2023-07-30T13:32:28;12.80;;;2.60;;
49764;SDS011;35657;51.204;-4.130;2023-07-30T13:34:54;16.25;;;2.17;;
49764;SDS011;35657;51.204;-4.130;2023-07-30T13:37:19;6.40;;;2.47;;
49764;SDS011;35657;51.204;-4.130;2023-07-30T13:39:45;7.85;;;3.08;;
49764;SDS011;35657;51.204;-4.130;2023-07-30T13:42:11;9.70;;;3.05;;
49764;SDS011;35657;51.204;-4.130;2023-07-30T13:44:37;10.10;;;2.45;;
49764;SDS011;35657;51.204;-4.130;2023-07-30T13:47:02;4.72;;;2.60;;
49764;SDS011;35657;51.204;-4.130;2023-07-30T13:49:28;6.20;;;2.70;;
49764;SDS011;35657;51.204;-4.130;2023-07-30T13:51:54;6.95;;;2.25;;
49764;SDS011;35657;51.204;-4.130;2023-07-30T13:54:20;13.75;;;2.83;;
49764;SDS011;35657;51.204;-4.130;2023-07-30T13:56:45;8.95;;;2.67;;
49764;SDS011;35657;51.204;-4.130;2023-07-30T13:59:11;8.95;;;3.20;;
49764;SDS011;35657;51.204;-4.130;2023-07-30T14:01:37;3.75;;;1.85;;
49764;SDS011;35657;51.204;-4.130;2023-07-30T14:04:03;5.80;;;2.33;;
49764;SDS011;35657;51.204;-4.130;2023-07-30T14:06:28;6.65;;;1.77;;
49764;SDS011;35657;51.204;-4.130;2023-07-30T14:08:55;5.38;;;1.58;;
49764;SDS011;35657;51.204;-4.130;2023-07-30T14:11:21;6.60;;;2.33;;
49764;SDS011;35657;51.204;-4.130;2023-07-30T14:13:47;4.57;;;2.20;;
49764;SDS011;35657;51.204;-4.130;2023-07-30T14:16:13;6.88;;;2.92;;
49764;SDS011;35657;51.204;-4.130;2023-07-30T14:18:39;7.85;;;2.70;;
49764;SDS011;35657;51.204;-4.130;2023-07-30T14:21:04;6.65;;;2.40;;
49764;SDS011;35657;51.204;-4.130;2023-07-30T14:23:30;8.43;;;2.75;;
49764;SDS011;35657;51.204;-4.130;2023-07-30T14:25:56;9.40;;;3.17;;
49764;SDS011;35657;51.204;-4.130;2023-07-30T14:28:22;18.92;;;3.58;;
49764;SDS011;35657;51.204;-4.130;2023-07-30T14:30:48;5.03;;;2.58;;
49764;SDS011;35657;51.204;-4.130;2023-07-30T14:33:13;5.82;;;2.90;;